Time;durP1;ratioP1;P1;durP2;ratioP2;P2;SDS_P1;SDS_P2;PMS_P1;PMS_P2;Temp;Humidity;BMP_temperature;BMP_pressure;BME280_temperature;BME280_humidity;BME280_pressure;Samples;Min_cycle;Max_cycle;Signal;HPM_P1;HPM_P2
2022/08/08 00:02:13;;;;;;;5.10;4.70;;;15.60;99.90;;;;;;5071869;28;20193;-79
2022/08/08 00:04:48;;;;;;;4.97;4.63;;;15.50;99.90;;;;;;5071969;28;20230;-79
2022/08/08 00:07:19;;;;;;;4.90;4.50;;;15.50;99.90;;;;;;5069772;28;20265;-79
2022/08/08 00:09:54;;;;;;;5.33;4.87;;;15.50;99.90;;;;;;5071632;28;20218;-79
2022/08/08 00:12:29;;;;;;;5.40;4.90;;;15.40;99.90;;;;;;5071802;28;20244;-79
2022/08/08 00:15:02;;;;;;;5.17;4.83;;;15.40;99.90;;;;;;5071416;28;20570;-79
2022/08/08 00:17:45;;;;;;;5.40;5.00;;;15.40;99.90;;;;;;5070803;28;20623;-79
2022/08/08 00:20:13;;;;;;;5.30;4.90;;;15.30;99.90;;;;;;5062012;28;20566;-79
2022/08/08 00:22:45;;;;;;;5.77;5.37;;;15.30;99.90;;;;;;5070345;28;20258;-79
2022/08/08 00:25:16;;;;;;;5.53;5.07;;;15.30;99.90;;;;;;5062288;28;20199;-78
2022/08/08 00:27:45;;;;;;;5.97;4.97;;;15.30;99.90;;;;;;5070475;28;20195;-79
2022/08/08 00:30:13;;;;;;;5.00;4.70;;;15.30;99.90;;;;;;5066795;28;20275;-79
2022/08/08 00:32:45;;;;;;;5.20;4.80;;;15.30;99.90;;;;;;5071424;28;20206;-79
2022/08/08 00:35:26;;;;;;;5.50;5.00;;;15.30;99.90;;;;;;5062150;28;20210;-79
2022/08/08 00:38:15;;;;;;;5.00;4.60;;;15.30;99.90;;;;;;5070259;28;20263;-79
2022/08/08 00:41:23;;;;;;;5.33;4.93;;;15.20;99.90;;;;;;5067852;28;20258;-78
2022/08/08 00:44:14;;;;;;;4.90;4.60;;;15.20;99.90;;;;;;5084254;28;20264;-79
2022/08/08 00:47:17;;;;;;;5.27;4.90;;;15.10;99.90;;;;;;5070876;28;20198;-79
2022/08/08 00:50:14;;;;;;;5.27;4.87;;;15.00;99.90;;;;;;5066803;28;20249;-79
2022/08/08 00:52:53;;;;;;;5.47;4.97;;;15.00;99.90;;;;;;5070368;28;20199;-79
2022/08/08 00:56:11;;;;;;;5.70;5.20;;;15.00;99.90;;;;;;5063432;28;20196;-79
2022/08/08 00:59:33;;;;;;;5.50;5.10;;;15.00;99.90;;;;;;4992635;28;20225;-79
2022/08/08 01:02:12;;;;;;;5.63;4.90;;;15.00;99.90;;;;;;5050656;28;20640;-79
2022/08/08 01:05:12;;;;;;;5.20;4.80;;;15.00;99.90;;;;;;5065538;28;20209;-79
2022/08/08 01:08:07;;;;;;;5.50;5.10;;;14.90;99.90;;;;;;5039941;28;20195;-79
2022/08/08 01:11:04;;;;;;;4.87;4.57;;;14.90;99.90;;;;;;5065596;28;20199;-79
2022/08/08 01:14:09;;;;;;;4.77;4.47;;;14.90;99.90;;;;;;5069853;28;20761;-79
2022/08/08 01:16:59;;;;;;;5.00;4.60;;;14.90;99.90;;;;;;5027313;28;20223;-79
2022/08/08 01:20:00;;;;;;;4.80;4.50;;;14.80;99.90;;;;;;5064148;28;20224;-79
2022/08/08 01:23:03;;;;;;;5.00;4.70;;;14.70;99.90;;;;;;5080911;28;20207;-79
2022/08/08 01:26:07;;;;;;;5.00;4.60;;;14.70;99.90;;;;;;5064620;28;20305;-79
2022/08/08 01:29:02;;;;;;;5.27;4.87;;;14.70;99.90;;;;;;5087185;22;20243;-77
2022/08/08 01:32:03;;;;;;;5.67;5.27;;;14.70;99.90;;;;;;5047055;28;20193;-77
2022/08/08 01:35:03;;;;;;;5.30;4.90;;;14.60;99.90;;;;;;5048203;28;20643;-77
2022/08/08 01:38:03;;;;;;;5.47;5.07;;;14.50;99.90;;;;;;5058815;28;20191;-77
2022/08/08 01:40:45;;;;;;;5.20;4.80;;;14.50;99.90;;;;;;5037465;28;20683;-77
2022/08/08 01:43:28;;;;;;;5.30;4.90;;;14.40;99.90;;;;;;5046877;28;20698;-77
2022/08/08 01:46:05;;;;;;;5.73;5.20;;;14.40;99.90;;;;;;5047572;28;20218;-77
2022/08/08 01:48:48;;;;;;;5.83;5.33;;;14.50;99.90;;;;;;5045758;28;20198;-77
2022/08/08 01:51:39;;;;;;;5.57;5.03;;;14.40;99.90;;;;;;5045961;28;20297;-78
2022/08/08 01:54:18;;;;;;;5.50;5.10;;;14.40;99.90;;;;;;5048614;28;20581;-77
2022/08/08 01:57:04;;;;;;;5.70;5.30;;;14.40;99.90;;;;;;5066252;28;20194;-77
2022/08/08 02:00:00;;;;;;;5.60;5.20;;;14.30;99.90;;;;;;5045669;28;20707;-77
2022/08/08 02:02:40;;;;;;;5.33;4.97;;;14.30;99.90;;;;;;5064077;28;20574;-77
2022/08/08 02:05:20;;;;;;;5.60;5.20;;;14.20;99.90;;;;;;5050208;28;20191;-77
2022/08/08 02:08:02;;;;;;;6.33;5.83;;;14.10;99.90;;;;;;5043241;28;20199;-77
2022/08/08 02:10:44;;;;;;;5.73;5.30;;;14.10;99.90;;;;;;5044430;28;20223;-77
2022/08/08 02:13:14;;;;;;;6.17;5.40;;;14.10;99.90;;;;;;5057206;28;20195;-78
2022/08/08 02:15:47;;;;;;;5.60;5.20;;;14.00;99.90;;;;;;5046602;28;20202;-77
2022/08/08 02:18:24;;;;;;;6.43;5.90;;;14.00;99.90;;;;;;5039395;28;20215;-78
2022/08/08 02:23:48;;;;;;;5.70;5.23;;;13.90;99.90;;;;;;5065955;28;20186;-77
2022/08/08 02:26:23;;;;;;;6.30;5.80;;;13.90;99.90;;;;;;5044469;28;20217;-77
2022/08/08 02:29:05;;;;;;;6.30;5.73;;;13.90;99.90;;;;;;5052556;28;20222;-78
2022/08/08 02:31:51;;;;;;;5.77;5.27;;;13.80;99.90;;;;;;5046359;28;20203;-78
2022/08/08 02:34:28;;;;;;;5.60;5.30;;;13.80;99.90;;;;;;5042518;28;20199;-78
2022/08/08 02:37:05;;;;;;;6.20;5.80;;;13.80;99.90;;;;;;5068351;28;20585;-77
2022/08/08 02:39:51;;;;;;;6.40;5.90;;;13.80;99.90;;;;;;5047659;28;20232;-77
2022/08/08 02:42:38;;;;;;;6.03;5.50;;;13.90;99.90;;;;;;5037710;28;20198;-77
2022/08/08 02:45:33;;;;;;;6.53;5.93;;;13.90;99.90;;;;;;5046244;28;20584;-77
2022/08/08 02:48:33;;;;;;;6.50;5.60;;;13.90;99.90;;;;;;5069717;28;20198;-78
2022/08/08 02:51:33;;;;;;;6.27;5.77;;;14.00;99.90;;;;;;5067942;28;20244;-82
2022/08/08 02:54:20;;;;;;;6.30;5.90;;;14.00;99.90;;;;;;5047126;28;20197;-78
2022/08/08 02:57:34;;;;;;;7.07;6.47;;;14.00;99.90;;;;;;5041162;28;20196;-75
2022/08/08 03:00:30;;;;;;;7.00;6.30;;;13.90;99.90;;;;;;5037229;28;20223;-76
2022/08/08 03:03:27;;;;;;;6.87;6.23;;;13.90;99.90;;;;;;5034348;28;20203;-76
2022/08/08 03:06:24;;;;;;;7.00;6.40;;;13.90;99.90;;;;;;5039249;28;20225;-75
2022/08/08 03:09:37;;;;;;;8.40;7.60;;;13.90;99.90;;;;;;5036584;28;20339;-76
2022/08/08 03:12:37;;;;;;;7.97;7.23;;;13.80;99.90;;;;;;5038443;28;20225;-77
2022/08/08 03:15:15;;;;;;;8.67;7.20;;;13.80;99.90;;;;;;5046591;28;20204;-77
2022/08/08 03:17:48;;;;;;;7.97;7.27;;;13.70;99.90;;;;;;5035898;28;20199;-79
2022/08/08 03:20:15;;;;;;;7.60;7.00;;;13.70;99.90;;;;;;5033362;28;20214;-78
2022/08/08 03:22:48;;;;;;;7.10;6.40;;;13.60;99.90;;;;;;5044435;28;20257;-80
2022/08/08 03:25:16;;;;;;;7.33;6.73;;;13.60;99.90;;;;;;5046823;28;20261;-77
2022/08/08 03:27:50;;;;;;;7.10;6.50;;;13.50;99.90;;;;;;5044806;28;20598;-77
2022/08/08 03:30:19;;;;;;;6.40;6.00;;;13.40;99.90;;;;;;5061241;28;20606;-77
2022/08/08 03:35:36;;;;;;;6.10;5.70;;;13.40;99.90;;;;;;5046187;28;20186;-78
2022/08/08 03:38:05;;;;;;;6.50;6.10;;;13.30;99.90;;;;;;5059469;28;20252;-79
2022/08/08 03:40:32;;;;;;;6.43;6.00;;;13.20;99.90;;;;;;5043939;28;20302;-77
2022/08/08 03:43:07;;;;;;;6.70;6.20;;;13.20;99.90;;;;;;5046159;28;20226;-79
2022/08/08 03:45:35;;;;;;;7.03;6.43;;;13.20;99.90;;;;;;5044433;28;20195;-77
2022/08/08 03:48:04;;;;;;;6.90;6.40;;;13.20;99.90;;;;;;5045997;28;20228;-77
2022/08/08 03:50:34;;;;;;;6.90;6.40;;;13.10;99.90;;;;;;5057903;28;20203;-78
2022/08/08 03:53:07;;;;;;;7.20;6.70;;;13.10;99.90;;;;;;5047089;28;20206;-77
2022/08/08 03:55:38;;;;;;;7.03;6.63;;;13.10;99.90;;;;;;5045768;28;20252;-79
2022/08/08 03:58:08;;;;;;;7.37;6.77;;;13.10;99.90;;;;;;5059095;28;20193;-77
2022/08/08 04:00:36;;;;;;;7.23;6.70;;;13.00;99.90;;;;;;5041888;28;20222;-78
2022/08/08 04:03:08;;;;;;;7.60;7.00;;;13.00;99.90;;;;;;5047604;28;20690;-76
2022/08/08 04:05:37;;;;;;;7.90;7.30;;;13.00;99.90;;;;;;5062636;28;20187;-77
2022/08/08 04:08:16;;;;;;;7.23;6.73;;;13.00;99.90;;;;;;5064825;28;20202;-77
2022/08/08 04:10:47;;;;;;;7.63;7.03;;;13.00;99.90;;;;;;5044117;28;20226;-77
2022/08/08 04:13:15;;;;;;;7.27;6.77;;;13.00;99.90;;;;;;5044739;28;20773;-78
2022/08/08 04:15:43;;;;;;;7.50;7.00;;;13.00;99.90;;;;;;5045495;28;20209;-77
2022/08/08 04:18:10;;;;;;;7.80;7.20;;;13.10;99.90;;;;;;5032048;28;20448;-77
2022/08/08 04:20:38;;;;;;;7.57;7.03;;;13.10;99.90;;;;;;5048040;28;20253;-77
2022/08/08 04:23:06;;;;;;;8.13;7.53;;;13.10;99.90;;;;;;5061879;28;20554;-77
2022/08/08 04:25:35;;;;;;;8.03;7.43;;;13.10;99.90;;;;;;5044463;28;20257;-77
2022/08/08 04:28:03;;;;;;;8.30;7.70;;;13.10;99.90;;;;;;5046934;28;20272;-77
2022/08/08 04:30:29;;;;;;;8.47;7.77;;;13.10;99.90;;;;;;5044892;28;20610;-78
2022/08/08 04:32:57;;;;;;;8.80;8.10;;;13.20;99.90;;;;;;5045145;28;20234;-77
2022/08/08 04:35:30;;;;;;;8.17;7.57;;;13.20;99.90;;;;;;5042847;28;20225;-77
2022/08/08 04:37:56;;;;;;;8.47;7.80;;;13.20;99.90;;;;;;5045897;28;20215;-77
2022/08/08 04:40:31;;;;;;;8.73;8.00;;;13.30;99.90;;;;;;5046240;28;20222;-77
2022/08/08 04:43:00;;;;;;;8.57;7.87;;;13.30;99.90;;;;;;5042631;28;20248;-77
2022/08/08 04:45:38;;;;;;;7.40;6.90;;;13.30;99.90;;;;;;5042564;28;20198;-77
2022/08/08 04:48:06;;;;;;;7.80;7.20;;;13.30;99.90;;;;;;5044834;28;20221;-77
2022/08/08 04:50:36;;;;;;;7.90;7.20;;;13.40;99.90;;;;;;5044218;28;20213;-77
2022/08/08 04:53:04;;;;;;;7.97;7.47;;;13.50;99.90;;;;;;5045002;28;20206;-78
2022/08/08 04:55:32;;;;;;;7.97;7.27;;;13.50;99.90;;;;;;5044235;28;20199;-78
2022/08/08 04:58:00;;;;;;;8.00;7.30;;;13.60;99.90;;;;;;5047891;28;20686;-77
2022/08/08 05:00:27;;;;;;;7.90;7.30;;;13.60;99.90;;;;;;5045110;28;20222;-77
2022/08/08 05:02:55;;;;;;;7.50;7.00;;;13.70;99.90;;;;;;5040293;28;20252;-78
2022/08/08 05:05:22;;;;;;;7.77;7.17;;;13.80;99.90;;;;;;5044586;28;20618;-77
2022/08/08 05:07:49;;;;;;;7.37;6.87;;;13.80;99.90;;;;;;5047861;28;20211;-78
2022/08/08 05:10:15;;;;;;;7.53;7.03;;;13.90;99.90;;;;;;5065722;28;20251;-78
2022/08/08 05:12:43;;;;;;;7.60;6.90;;;14.00;99.90;;;;;;5046664;28;20197;-78
2022/08/08 05:15:12;;;;;;;7.27;6.70;;;14.00;99.90;;;;;;5037090;28;20222;-77
2022/08/08 05:17:39;;;;;;;7.23;6.63;;;14.20;99.90;;;;;;5062692;28;20633;-79
2022/08/08 05:20:08;;;;;;;7.07;6.60;;;14.40;99.90;;;;;;5048581;28;20211;-77
2022/08/08 05:22:38;;;;;;;7.30;6.80;;;14.50;99.90;;;;;;5047381;28;20224;-78
2022/08/08 05:25:05;;;;;;;7.00;6.50;;;14.60;99.90;;;;;;5047180;28;20252;-77
2022/08/08 05:27:33;;;;;;;5.90;5.50;;;14.80;99.90;;;;;;5047052;28;20266;-78
2022/08/08 05:29:59;;;;;;;2.90;2.70;;;14.90;99.90;;;;;;5050042;28;20249;-77
2022/08/08 05:32:34;;;;;;;4.67;4.37;;;15.00;99.90;;;;;;5047252;28;20190;-78
2022/08/08 05:35:02;;;;;;;3.40;3.10;;;15.30;99.90;;;;;;5043221;28;20618;-78
2022/08/08 05:37:34;;;;;;;2.97;2.60;;;15.40;99.90;;;;;;5044309;28;20674;-78
2022/08/08 05:40:04;;;;;;;6.67;6.17;;;15.60;99.90;;;;;;5046351;28;20727;-78
2022/08/08 05:42:39;;;;;;;3.47;3.17;;;15.70;99.90;;;;;;5046598;28;20196;-78
2022/08/08 05:45:08;;;;;;;7.03;6.53;;;15.90;99.90;;;;;;5049141;28;20198;-77
2022/08/08 05:47:38;;;;;;;4.33;4.03;;;16.00;99.90;;;;;;5041568;28;20214;-77
2022/08/08 05:50:06;;;;;;;4.07;2.97;;;16.30;99.90;;;;;;5045853;28;20214;-77
2022/08/08 05:52:34;;;;;;;4.90;2.67;;;16.70;99.90;;;;;;5044658;28;20205;-78
2022/08/08 05:55:01;;;;;;;6.63;6.13;;;17.10;99.90;;;;;;5040818;28;20209;-78
2022/08/08 05:57:32;;;;;;;3.90;3.23;;;17.30;99.90;;;;;;5048736;28;20197;-77
2022/08/08 06:00:02;;;;;;;4.00;3.70;;;17.30;99.90;;;;;;5044439;28;20223;-77
2022/08/08 06:05:33;;;;;;;6.47;6.07;;;17.20;99.90;;;;;;5040437;28;20213;-78
2022/08/08 06:08:02;;;;;;;2.97;2.77;;;17.20;99.90;;;;;;5046165;28;20226;-78
2022/08/08 06:10:31;;;;;;;7.77;7.27;;;17.20;99.90;;;;;;5045409;28;20237;-78
2022/08/08 06:13:00;;;;;;;6.37;5.97;;;17.20;99.90;;;;;;5045270;28;20739;-77
2022/08/08 06:15:28;;;;;;;6.03;5.63;;;17.20;99.90;;;;;;5045067;28;20199;-78
2022/08/08 06:17:58;;;;;;;5.97;5.57;;;17.30;99.90;;;;;;5047828;28;20248;-78
2022/08/08 06:20:25;;;;;;;6.80;6.30;;;17.40;99.90;;;;;;5045142;28;20218;-78
2022/08/08 06:22:52;;;;;;;2.60;2.40;;;17.60;99.90;;;;;;5042111;28;20192;-78
2022/08/08 06:25:22;;;;;;;6.77;6.37;;;17.60;99.90;;;;;;5048285;28;20191;-77
2022/08/08 06:27:54;;;;;;;2.67;2.47;;;17.70;99.90;;;;;;5046388;28;20592;-78
2022/08/08 06:30:22;;;;;;;6.33;5.93;;;17.90;99.90;;;;;;5048370;28;20222;-79
2022/08/08 06:32:58;;;;;;;5.93;5.50;;;18.10;99.90;;;;;;5043278;28;20204;-78
2022/08/08 06:35:30;;;;;;;6.90;6.40;;;18.20;99.90;;;;;;5044691;28;20488;-78
2022/08/08 06:38:05;;;;;;;2.80;2.60;;;18.30;99.90;;;;;;5046173;28;20187;-78
2022/08/08 06:40:35;;;;;;;6.60;6.00;;;18.30;99.90;;;;;;5045035;28;20216;-78
2022/08/08 06:43:09;;;;;;;5.90;5.50;;;18.40;99.90;;;;;;5045903;28;20201;-79
2022/08/08 06:45:50;;;;;;;2.77;2.57;;;18.60;99.90;;;;;;5044510;28;20230;-80
2022/08/08 06:48:20;;;;;;;3.83;3.57;;;19.00;99.90;;;;;;5044772;28;20279;-78
2022/08/08 06:50:47;;;;;;;6.90;6.40;;;19.20;99.90;;;;;;5048521;28;20207;-78
2022/08/08 06:53:17;;;;;;;6.60;6.20;;;19.40;99.90;;;;;;5043777;28;20244;-78
2022/08/08 06:55:46;;;;;;;6.90;6.43;;;19.60;99.90;;;;;;5043294;28;20199;-79
2022/08/08 06:58:13;;;;;;;2.70;2.50;;;19.70;99.90;;;;;;5045812;28;20208;-77
2022/08/08 07:00:43;;;;;;;3.13;2.83;;;19.80;99.90;;;;;;5046063;28;20217;-78
2022/08/08 07:03:18;;;;;;;3.00;2.80;;;20.10;99.90;;;;;;5046055;28;20222;-77
2022/08/08 07:05:50;;;;;;;4.30;4.00;;;20.50;99.90;;;;;;5046776;28;20570;-77
2022/08/08 07:08:20;;;;;;;3.97;3.67;;;20.90;99.90;;;;;;5046058;28;20237;-77
2022/08/08 07:10:50;;;;;;;2.90;2.70;;;21.30;99.90;;;;;;5049990;28;20293;-77
2022/08/08 07:13:18;;;;;;;4.90;4.50;;;21.50;99.90;;;;;;5045135;28;20260;-77
2022/08/08 07:15:53;;;;;;;5.67;4.90;;;21.60;99.90;;;;;;5044288;28;20191;-78
2022/08/08 07:18:29;;;;;;;3.20;3.00;;;21.90;99.90;;;;;;5046633;28;20208;-77
2022/08/08 07:21:03;;;;;;;5.53;5.13;;;22.20;99.90;;;;;;5046643;28;20544;-77
2022/08/08 07:23:36;;;;;;;6.30;5.90;;;22.40;99.90;;;;;;5045871;28;20716;-77
2022/08/08 07:26:03;;;;;;;6.90;6.40;;;22.60;99.90;;;;;;5045365;28;20212;-78
2022/08/08 07:28:31;;;;;;;3.13;2.83;;;22.90;99.90;;;;;;5043780;28;20207;-78
2022/08/08 07:30:59;;;;;;;5.63;5.13;;;23.10;99.90;;;;;;5050212;28;20216;-78
2022/08/08 07:33:28;;;;;;;6.13;5.70;;;23.00;99.90;;;;;;5044783;28;20729;-77
2022/08/08 07:35:56;;;;;;;6.97;6.47;;;23.40;99.90;;;;;;5061739;28;20306;-78
2022/08/08 07:38:27;;;;;;;7.57;6.70;;;23.70;99.90;;;;;;5049717;28;20199;-78
2022/08/08 07:41:00;;;;;;;6.20;5.80;;;23.90;99.90;;;;;;5048028;28;20194;-78
2022/08/08 07:43:33;;;;;;;3.80;2.70;;;24.20;99.90;;;;;;5056125;28;20195;-78
2022/08/08 07:46:01;;;;;;;6.63;6.03;;;24.50;99.90;;;;;;5055947;28;20190;-78
2022/08/08 07:48:28;;;;;;;7.03;6.53;;;24.90;99.90;;;;;;5048782;28;20214;-78
2022/08/08 07:50:59;;;;;;;7.10;6.50;;;25.00;99.90;;;;;;5049146;28;20206;-78
2022/08/08 07:53:37;;;;;;;6.60;5.90;;;25.10;99.90;;;;;;5043892;28;20209;-78
2022/08/08 07:56:08;;;;;;;5.77;5.37;;;25.00;99.90;;;;;;5063300;28;20671;-78
2022/08/08 07:58:40;;;;;;;6.10;5.70;;;25.30;99.90;;;;;;5045322;28;20257;-78
2022/08/08 08:01:10;;;;;;;2.90;2.70;;;25.40;99.90;;;;;;5041525;28;20205;-78
2022/08/08 08:03:46;;;;;;;4.53;2.70;;;25.80;99.90;;;;;;5040762;28;20281;-78
2022/08/08 08:06:20;;;;;;;4.70;4.40;;;26.00;99.90;;;;;;5039033;28;20290;-78
2022/08/08 08:08:54;;;;;;;4.90;4.60;;;26.00;99.90;;;;;;5043444;28;20226;-78
2022/08/08 08:11:27;;;;;;;3.10;2.80;;;26.00;99.90;;;;;;5045138;28;20195;-78
2022/08/08 08:13:59;;;;;;;5.03;4.63;;;26.30;99.90;;;;;;5046223;28;20191;-78
2022/08/08 08:16:30;;;;;;;5.70;5.00;;;26.30;99.90;;;;;;5039459;28;20295;-78
2022/08/08 08:19:02;;;;;;;5.93;5.43;;;26.60;99.90;;;;;;5045612;28;20220;-77
2022/08/08 08:21:38;;;;;;;5.20;4.80;;;26.60;99.90;;;;;;5043921;28;20230;-78
2022/08/08 08:24:08;;;;;;;5.03;4.70;;;27.00;99.90;;;;;;5046977;28;20231;-78
2022/08/08 08:26:35;;;;;;;4.77;4.37;;;27.10;99.90;;;;;;5044633;28;20199;-76
2022/08/08 08:29:04;;;;;;;7.00;6.50;;;27.30;99.90;;;;;;5042566;28;20222;-76
2022/08/08 08:31:32;;;;;;;6.17;5.77;;;27.50;99.90;;;;;;5043799;28;20672;-76
2022/08/08 08:34:01;;;;;;;5.60;5.13;;;27.80;99.90;;;;;;5039758;28;20286;-77
2022/08/08 08:36:28;;;;;;;7.60;6.83;;;27.70;99.90;;;;;;5041416;28;20195;-76
2022/08/08 08:38:56;;;;;;;6.93;6.43;;;27.90;99.90;;;;;;5042675;28;20594;-76
2022/08/08 08:41:33;;;;;;;6.97;6.27;;;28.10;99.90;;;;;;5040075;28;20199;-76
2022/08/08 08:44:02;;;;;;;6.90;6.50;;;28.00;99.90;;;;;;5046436;28;20661;-76
2022/08/08 08:46:30;;;;;;;7.50;6.90;;;28.10;99.90;;;;;;5061946;28;20573;-75
2022/08/08 08:48:58;;;;;;;7.13;6.73;;;28.20;99.90;;;;;;5046424;28;20695;-76
2022/08/08 08:51:28;;;;;;;7.43;6.83;;;28.40;99.90;;;;;;5042067;28;20194;-76
2022/08/08 08:54:02;;;;;;;7.10;6.60;;;28.50;99.90;;;;;;5047575;28;20231;-77
2022/08/08 08:56:35;;;;;;;7.43;6.93;;;28.30;99.90;;;;;;5062540;28;20190;-78
2022/08/08 08:59:10;;;;;;;7.00;6.60;;;28.20;99.90;;;;;;5053555;28;20277;-78
2022/08/08 09:01:42;;;;;;;5.60;5.20;;;28.30;99.90;;;;;;5046808;28;20207;-78
2022/08/08 09:04:15;;;;;;;6.90;6.30;;;28.60;99.90;;;;;;5046347;28;20191;-78
2022/08/08 09:06:44;;;;;;;6.97;6.37;;;29.00;99.90;;;;;;5047526;28;20551;-78
2022/08/08 09:09:16;;;;;;;7.60;6.90;;;28.70;99.90;;;;;;5041574;28;20692;-78
2022/08/08 09:11:47;;;;;;;7.37;6.77;;;28.80;99.90;;;;;;5046268;28;20199;-78
2022/08/08 09:14:15;;;;;;;7.00;6.50;;;29.30;99.90;;;;;;5046366;28;20195;-78
2022/08/08 09:16:46;;;;;;;7.70;6.60;;;29.40;96.50;;;;;;5046978;28;20203;-79
2022/08/08 09:19:14;;;;;;;6.90;6.50;;;29.10;96.60;;;;;;5046874;28;20225;-79
2022/08/08 09:21:41;;;;;;;6.80;6.40;;;28.90;95.10;;;;;;5047158;28;20198;-78
2022/08/08 09:24:09;;;;;;;6.20;5.80;;;28.80;96.30;;;;;;5047322;28;20577;-79
2022/08/08 09:26:45;;;;;;;6.70;6.20;;;28.80;96.80;;;;;;5049101;28;20202;-76
2022/08/08 09:29:20;;;;;;;6.03;5.63;;;28.90;95.90;;;;;;5053835;28;20222;-77
2022/08/08 09:31:54;;;;;;;4.27;2.83;;;29.00;95.00;;;;;;5042354;28;20236;-76
2022/08/08 09:34:25;;;;;;;6.33;5.83;;;29.10;95.90;;;;;;5044728;28;20226;-76
2022/08/08 09:37:02;;;;;;;6.10;5.70;;;29.10;96.00;;;;;;5045544;28;20187;-77
2022/08/08 09:39:30;;;;;;;6.00;5.60;;;29.20;95.00;;;;;;5044888;28;20227;-77
2022/08/08 09:42:01;;;;;;;3.23;2.93;;;29.50;95.00;;;;;;5046970;28;20206;-76
2022/08/08 09:44:49;;;;;;;5.73;5.23;;;29.70;95.50;;;;;;5063648;28;20278;-76
2022/08/08 09:47:19;;;;;;;5.67;5.17;;;29.70;93.40;;;;;;5052657;28;20612;-75
2022/08/08 09:49:48;;;;;;;7.07;6.57;;;30.00;95.30;;;;;;5066244;28;20625;-76
2022/08/08 09:52:19;;;;;;;7.20;6.70;;;30.10;92.70;;;;;;5064928;28;20194;-76
2022/08/08 09:54:45;;;;;;;7.00;6.50;;;30.10;93.60;;;;;;5063692;28;20260;-76
2022/08/08 09:57:17;;;;;;;6.73;6.30;;;30.00;93.90;;;;;;5065718;28;20603;-76
2022/08/08 09:59:50;;;;;;;6.77;6.27;;;30.10;93.00;;;;;;5045829;28;20219;-77
2022/08/08 10:02:23;;;;;;;7.77;7.20;;;30.20;93.80;;;;;;5041278;28;20244;-76
2022/08/08 10:04:51;;;;;;;7.27;6.77;;;30.50;93.60;;;;;;5064906;28;20187;-76
2022/08/08 10:07:18;;;;;;;6.47;5.97;;;30.20;93.60;;;;;;5041707;28;20203;-76
2022/08/08 10:09:51;;;;;;;9.70;6.20;;;30.00;93.90;;;;;;5064953;28;20223;-76
2022/08/08 10:12:19;;;;;;;6.73;6.20;;;29.90;93.30;;;;;;5065724;28;20209;-76
2022/08/08 10:14:47;;;;;;;6.10;5.70;;;29.70;92.60;;;;;;5064926;28;20187;-76
2022/08/08 10:17:13;;;;;;;6.00;5.60;;;29.00;93.00;;;;;;5047820;28;20199;-76
2022/08/08 10:19:41;;;;;;;5.17;2.33;;;29.00;93.40;;;;;;5065984;28;20265;-76
2022/08/08 10:22:09;;;;;;;3.43;3.23;;;29.10;91.50;;;;;;5044539;28;20456;-79
2022/08/08 10:24:45;;;;;;;5.93;5.53;;;28.80;92.60;;;;;;5049438;28;20766;-78
2022/08/08 10:27:13;;;;;;;3.60;3.30;;;28.40;91.70;;;;;;5055438;28;20191;-77
2022/08/08 10:29:47;;;;;;;6.70;6.20;;;28.30;91.60;;;;;;5062213;28;20280;-76
2022/08/08 10:32:39;;;;;;;6.60;6.20;;;28.20;92.20;;;;;;5056016;28;20202;-78
2022/08/08 10:35:11;;;;;;;6.43;6.03;;;28.20;91.90;;;;;;5065838;28;20191;-78
2022/08/08 10:37:41;;;;;;;6.60;6.00;;;27.90;91.60;;;;;;5049098;28;20195;-78
2022/08/08 10:40:14;;;;;;;2.47;2.28;;;28.00;92.10;;;;;;5061768;28;20990;-80
2022/08/08 10:42:42;;;;;;;5.53;5.13;;;28.10;91.80;;;;;;5047232;28;20708;-82
2022/08/08 10:45:10;;;;;;;9.77;5.90;;;28.20;91.10;;;;;;5062361;28;20672;-80
2022/08/08 10:47:39;;;;;;;5.45;4.95;;;28.00;91.40;;;;;;5044093;28;20438;-78
2022/08/08 10:50:07;;;;;;;3.60;3.40;;;28.10;90.90;;;;;;5057442;28;20264;-79
2022/08/08 10:52:37;;;;;;;5.27;4.97;;;27.80;91.20;;;;;;5065748;28;20203;-79
2022/08/08 10:55:07;;;;;;;5.43;5.03;;;27.90;91.70;;;;;;5060974;28;20195;-78
2022/08/08 10:57:38;;;;;;;4.93;4.53;;;27.60;90.80;;;;;;5061125;28;20218;-79
2022/08/08 11:00:07;;;;;;;2.20;2.00;;;27.30;90.10;;;;;;5064758;28;20214;-79
2022/08/08 11:02:34;;;;;;;6.27;5.87;;;27.10;91.00;;;;;;5058925;28;20203;-78
2022/08/08 11:05:05;;;;;;;3.93;2.97;;;27.20;90.90;;;;;;5046276;28;20199;-78
2022/08/08 11:07:34;;;;;;;5.67;5.27;;;27.10;91.40;;;;;;5062299;28;20187;-78
2022/08/08 11:10:04;;;;;;;5.73;5.23;;;27.20;91.70;;;;;;5064008;28;20225;-78
2022/08/08 11:12:32;;;;;;;6.63;6.07;;;27.20;90.90;;;;;;5062125;28;20187;-78
2022/08/08 11:15:00;;;;;;;5.93;5.43;;;27.30;91.10;;;;;;5062495;28;20211;-78
2022/08/08 11:17:29;;;;;;;2.23;2.07;;;27.20;90.60;;;;;;5060247;28;20198;-78
2022/08/08 11:19:56;;;;;;;1.97;1.87;;;27.40;91.40;;;;;;5063188;28;20291;-78
2022/08/08 11:22:29;;;;;;;2.87;1.97;;;27.70;90.50;;;;;;5062453;28;20194;-79
2022/08/08 11:25:01;;;;;;;2.20;2.00;;;27.60;90.40;;;;;;5041668;28;20398;-78
2022/08/08 11:27:31;;;;;;;3.20;1.73;;;27.50;90.20;;;;;;5061516;28;20249;-78
2022/08/08 11:30:00;;;;;;;2.50;1.90;;;27.40;88.50;;;;;;5063101;28;20215;-79
2022/08/08 11:32:30;;;;;;;6.03;2.20;;;27.60;90.50;;;;;;5044275;28;20286;-78
2022/08/08 11:35:04;;;;;;;2.30;2.00;;;27.70;90.30;;;;;;5043814;28;20206;-78
2022/08/08 11:37:33;;;;;;;2.10;2.00;;;27.60;87.40;;;;;;5061815;28;20545;-78
2022/08/08 11:40:01;;;;;;;2.33;1.97;;;27.40;89.10;;;;;;5046536;28;20256;-78
2022/08/08 11:42:29;;;;;;;2.10;1.90;;;27.40;88.40;;;;;;5043973;28;20199;-78
2022/08/08 11:44:57;;;;;;;3.27;2.87;;;27.50;90.60;;;;;;5040869;28;20280;-79
2022/08/08 11:47:24;;;;;;;2.23;2.03;;;27.50;87.10;;;;;;5060210;28;20202;-78
2022/08/08 11:49:54;;;;;;;3.37;3.10;;;27.20;89.40;;;;;;5062740;28;20230;-79
2022/08/08 11:52:22;;;;;;;3.13;2.93;;;27.10;88.20;;;;;;5063816;28;20845;-78
2022/08/08 11:54:51;;;;;;;2.33;2.13;;;27.20;90.40;;;;;;5043700;28;20191;-78
2022/08/08 11:57:22;;;;;;;2.20;2.00;;;27.30;90.00;;;;;;5062612;28;20609;-80
2022/08/08 11:59:54;;;;;;;3.87;2.03;;;27.20;87.90;;;;;;5063208;28;20210;-78
2022/08/08 12:02:23;;;;;;;2.30;2.10;;;27.10;90.00;;;;;;5041748;28;20739;-78
2022/08/08 12:04:59;;;;;;;2.00;1.80;;;27.20;88.60;;;;;;5057133;28;20223;-78
2022/08/08 12:07:26;;;;;;;2.63;1.97;;;27.30;91.10;;;;;;5065565;28;20198;-78
2022/08/08 12:09:55;;;;;;;2.20;2.00;;;27.30;89.90;;;;;;5061169;28;20218;-77
2022/08/08 12:12:24;;;;;;;1.90;1.80;;;27.40;89.90;;;;;;5063306;28;20191;-78
2022/08/08 12:15:00;;;;;;;2.20;2.10;;;27.30;90.40;;;;;;5063034;28;20199;-78
2022/08/08 12:17:35;;;;;;;2.50;2.20;;;27.40;90.70;;;;;;5056138;28;20237;-78
2022/08/08 12:20:03;;;;;;;2.00;1.90;;;27.40;90.00;;;;;;5062616;28;20222;-78
2022/08/08 12:22:31;;;;;;;2.73;1.93;;;27.20;90.50;;;;;;5062085;28;20697;-78
2022/08/08 12:25:00;;;;;;;2.20;2.00;;;27.20;89.40;;;;;;5064543;28;20274;-78
2022/08/08 12:27:37;;;;;;;2.40;2.20;;;27.10;90.50;;;;;;5045981;28;20195;-78
2022/08/08 12:30:05;;;;;;;2.73;2.20;;;27.00;90.30;;;;;;5064650;28;20309;-79
2022/08/08 12:32:42;;;;;;;2.87;1.93;;;27.00;90.10;;;;;;5062062;28;20209;-78
2022/08/08 12:35:19;;;;;;;6.07;5.47;;;27.00;90.30;;;;;;5057389;28;20577;-79
2022/08/08 12:37:47;;;;;;;5.40;4.90;;;27.00;90.10;;;;;;5060711;28;20278;-79
2022/08/08 12:40:17;;;;;;;5.90;5.33;;;27.00;89.30;;;;;;5063765;28;20693;-78
2022/08/08 12:42:45;;;;;;;5.77;5.10;;;26.90;89.10;;;;;;5062541;28;20688;-79
2022/08/08 12:45:12;;;;;;;2.63;2.03;;;27.00;88.40;;;;;;5043831;28;20211;-80
2022/08/08 12:47:39;;;;;;;2.00;1.90;;;27.00;89.70;;;;;;5044829;28;20206;-79
2022/08/08 12:50:07;;;;;;;2.00;1.90;;;27.00;90.30;;;;;;5044390;28;20226;-79
2022/08/08 12:52:38;;;;;;;2.37;2.17;;;27.00;89.80;;;;;;5047318;28;20201;-80
2022/08/08 12:55:08;;;;;;;2.40;2.20;;;27.00;90.20;;;;;;5042559;28;20206;-79
2022/08/08 12:57:36;;;;;;;2.13;2.00;;;27.00;88.80;;;;;;5043190;28;20195;-79
2022/08/08 13:00:05;;;;;;;2.20;2.00;;;26.90;89.80;;;;;;5045523;28;20211;-79
2022/08/08 13:02:34;;;;;;;2.57;2.20;;;27.10;90.20;;;;;;5061356;28;20198;-78
2022/08/08 13:05:02;;;;;;;2.43;2.23;;;27.10;89.80;;;;;;5045297;28;20191;-78
2022/08/08 13:07:34;;;;;;;2.67;2.27;;;27.10;90.30;;;;;;5042299;28;20197;-78
2022/08/08 13:10:03;;;;;;;2.13;2.00;;;27.10;90.00;;;;;;5045207;28;20652;-78
2022/08/08 13:12:33;;;;;;;3.07;2.10;;;27.00;89.80;;;;;;5045089;28;20202;-79
2022/08/08 13:15:04;;;;;;;3.57;2.00;;;27.00;89.30;;;;;;5059086;28;20203;-79
2022/08/08 13:17:33;;;;;;;2.23;2.13;;;27.00;90.00;;;;;;5057976;28;20222;-78
2022/08/08 13:20:00;;;;;;;2.83;2.17;;;26.90;89.70;;;;;;5060977;28;20219;-78
2022/08/08 13:22:27;;;;;;;4.40;4.10;;;26.90;89.50;;;;;;5043381;28;20257;-78
2022/08/08 13:24:54;;;;;;;6.90;4.73;;;26.90;89.10;;;;;;5061855;28;20256;-78
2022/08/08 13:27:28;;;;;;;4.27;3.97;;;26.90;88.90;;;;;;5064040;28;20196;-79
2022/08/08 13:29:56;;;;;;;4.80;2.17;;;26.90;90.30;;;;;;5069516;28;20225;-79
2022/08/08 13:32:27;;;;;;;2.13;1.90;;;26.90;89.80;;;;;;5063892;28;20217;-79